createdAt,value
2018-09-13T00:00:53.472Z,7.10
2018-09-13T00:03:22.172Z,9.77
2018-09-13T00:05:50.865Z,9.10
2018-09-13T00:08:19.652Z,7.00
2018-09-13T00:10:48.257Z,7.70
2018-09-13T00:13:16.896Z,6.70
2018-09-13T00:15:45.512Z,7.23
2018-09-13T00:18:14.237Z,9.67
2018-09-13T00:20:42.813Z,7.87
2018-09-13T00:23:11.412Z,8.47
2018-09-13T00:25:40.056Z,9.00
2018-09-13T00:28:08.668Z,7.17
2018-09-13T00:30:37.288Z,9.73
2018-09-13T00:33:05.863Z,8.60
2018-09-13T00:35:34.440Z,7.60
2018-09-13T00:38:03.029Z,10.23
2018-09-13T00:40:31.616Z,7.83
2018-09-13T00:43:00.238Z,9.07
2018-09-13T00:45:28.880Z,9.57
2018-09-13T00:47:57.472Z,8.07
2018-09-13T00:50:26.083Z,8.10
2018-09-13T00:52:54.667Z,9.70
2018-09-13T00:55:23.316Z,10.37
2018-09-13T00:57:51.901Z,9.07
2018-09-13T01:00:20.497Z,10.10
2018-09-13T01:02:49.202Z,11.03
2018-09-13T01:05:17.815Z,12.63
2018-09-13T01:07:46.406Z,11.43
2018-09-13T01:10:14.976Z,12.57
2018-09-13T01:12:43.634Z,11.77
2018-09-13T01:15:12.589Z,10.37
2018-09-13T01:17:41.178Z,8.87
2018-09-13T01:20:09.848Z,13.97
2018-09-13T01:22:38.464Z,12.40
2018-09-13T01:25:07.121Z,10.67
2018-09-13T01:27:35.735Z,11.20
2018-09-13T01:30:04.327Z,9.07
2018-09-13T01:32:32.904Z,9.70
2018-09-13T01:35:01.493Z,10.57
2018-09-13T01:37:30.138Z,10.43
2018-09-13T01:39:58.745Z,10.70
2018-09-13T01:42:27.368Z,15.17
2018-09-13T01:44:55.966Z,11.20
2018-09-13T01:47:24.560Z,11.10
2018-09-13T01:49:53.626Z,13.80
2018-09-13T01:52:22.224Z,11.77
2018-09-13T01:54:50.804Z,12.93
2018-09-13T01:57:19.417Z,12.10
2018-09-13T01:59:48.029Z,12.67
2018-09-13T02:02:16.864Z,12.77
2018-09-13T02:04:45.464Z,12.63
2018-09-13T02:07:14.254Z,11.20
2018-09-13T02:09:42.889Z,12.23
2018-09-13T02:12:11.517Z,15.17
2018-09-13T02:14:40.445Z,13.27
2018-09-13T02:17:09.054Z,15.27
2018-09-13T02:19:37.644Z,14.40
2018-09-13T02:22:06.529Z,12.33
2018-09-13T02:24:35.125Z,11.47
2018-09-13T02:27:03.760Z,14.83
2018-09-13T02:29:32.384Z,12.33
2018-09-13T02:32:01.004Z,11.20
2018-09-13T02:34:29.620Z,15.40
2018-09-13T02:36:58.213Z,11.00
2018-09-13T02:39:27.258Z,11.80
2018-09-13T02:41:56.071Z,12.70
2018-09-13T02:44:24.685Z,12.80
2018-09-13T02:46:53.353Z,12.90
2018-09-13T02:49:22.043Z,13.47
2018-09-13T02:51:50.869Z,12.87
2018-09-13T02:54:19.490Z,12.03
2018-09-13T02:56:48.085Z,13.97
2018-09-13T02:59:16.702Z,13.17
2018-09-13T03:01:45.333Z,14.67
2018-09-13T03:04:13.974Z,13.90
2018-09-13T03:06:42.676Z,13.63
2018-09-13T03:09:12.786Z,13.33
2018-09-13T03:11:42.492Z,15.50
2018-09-13T03:14:11.357Z,16.97
2018-09-13T03:16:40.081Z,14.23
2018-09-13T03:19:08.789Z,13.43
2018-09-13T03:21:37.369Z,14.63
2018-09-13T03:24:06.061Z,17.10
2018-09-13T03:26:35.006Z,15.37
2018-09-13T03:29:03.875Z,15.83
2018-09-13T03:31:32.644Z,17.90
2018-09-13T03:34:01.620Z,21.43
2018-09-13T03:36:30.317Z,18.63
2018-09-13T03:38:58.901Z,18.77
2018-09-13T03:41:27.558Z,16.63
2018-09-13T03:43:56.273Z,17.10
2018-09-13T03:46:24.995Z,20.17
2018-09-13T03:48:53.628Z,16.27
2018-09-13T03:51:22.256Z,21.07
2018-09-13T03:53:50.844Z,17.60
2018-09-13T03:56:19.431Z,17.90
2018-09-13T03:58:48.104Z,18.77
2018-09-13T04:01:16.706Z,16.20
2018-09-13T04:03:45.485Z,16.70
2018-09-13T04:06:14.117Z,20.63
2018-09-13T04:08:42.781Z,16.60
2018-09-13T04:11:11.404Z,19.07
2018-09-13T04:13:40.044Z,13.87
2018-09-13T04:16:08.652Z,16.67
2018-09-13T04:18:37.509Z,17.17
2018-09-13T04:21:06.226Z,17.33
2018-09-13T04:23:34.864Z,16.30
2018-09-13T04:26:03.616Z,16.27
2018-09-13T04:28:32.213Z,18.30
2018-09-13T04:31:00.796Z,15.70
2018-09-13T04:33:29.416Z,13.50
2018-09-13T04:35:58.108Z,16.83
2018-09-13T04:38:26.865Z,13.03
2018-09-13T04:40:55.460Z,13.50
2018-09-13T04:43:24.112Z,17.90
2018-09-13T04:45:52.749Z,16.83
2018-09-13T04:48:21.379Z,13.97
2018-09-13T04:50:49.972Z,14.27
2018-09-13T04:53:18.569Z,13.80
2018-09-13T04:55:47.220Z,13.47
2018-09-13T04:58:15.881Z,13.70
2018-09-13T05:00:44.577Z,14.70
2018-09-13T05:03:13.214Z,13.13
2018-09-13T05:05:41.858Z,12.80
2018-09-13T05:08:10.459Z,16.27
2018-09-13T05:10:45.716Z,14.27
2018-09-13T05:13:14.298Z,15.20
2018-09-13T05:15:42.891Z,10.60
2018-09-13T05:18:11.497Z,14.23
2018-09-13T05:20:40.104Z,11.13
2018-09-13T05:23:08.700Z,10.13
2018-09-13T05:25:37.400Z,11.57
2018-09-13T05:28:06.408Z,11.00
2018-09-13T05:30:35.037Z,9.30
2018-09-13T05:33:03.636Z,10.70
2018-09-13T05:35:32.226Z,10.23
2018-09-13T05:38:00.808Z,9.70
2018-09-13T05:40:29.775Z,9.83
2018-09-13T05:42:58.437Z,12.57
2018-09-13T05:45:27.422Z,8.60
2018-09-13T05:47:56.018Z,9.97
2018-09-13T05:50:24.708Z,9.03
2018-09-13T05:52:53.392Z,9.07
2018-09-13T05:55:22.013Z,9.90
2018-09-13T05:57:50.619Z,10.37
2018-09-13T06:00:19.228Z,10.60
2018-09-13T06:02:47.863Z,7.97
2018-09-13T06:05:17.105Z,7.67
2018-09-13T06:07:45.729Z,7.83
2018-09-13T06:10:14.648Z,9.23
2018-09-13T06:12:43.329Z,8.47
2018-09-13T06:15:11.918Z,9.10
2018-09-13T06:17:40.601Z,8.77
2018-09-13T06:20:09.449Z,7.40
2018-09-13T06:22:38.661Z,12.63
2018-09-13T06:25:08.832Z,9.78
2018-09-13T06:27:38.176Z,9.08
2018-09-13T06:30:07.830Z,8.38
2018-09-13T06:32:37.073Z,8.45
2018-09-13T06:35:06.772Z,11.10
2018-09-13T06:37:35.964Z,12.43
2018-09-13T06:40:05.148Z,8.90
2018-09-13T06:42:34.446Z,12.95
2018-09-13T06:45:03.817Z,10.68
2018-09-13T06:47:33.100Z,9.13
2018-09-13T06:50:02.339Z,8.63
2018-09-13T06:52:31.508Z,7.78
2018-09-13T06:55:00.678Z,9.10
2018-09-13T06:57:29.920Z,9.95
2018-09-13T06:59:59.693Z,8.60
2018-09-13T07:02:28.966Z,10.85
2018-09-13T07:04:58.366Z,9.65
2018-09-13T07:07:27.672Z,10.03
2018-09-13T07:09:56.927Z,9.65
2018-09-13T07:12:26.140Z,9.53
2018-09-13T07:14:55.306Z,11.15
2018-09-13T07:17:24.536Z,8.20
2018-09-13T07:19:53.735Z,9.85
2018-09-13T07:22:22.991Z,9.18
2018-09-13T07:24:52.148Z,7.67
2018-09-13T07:27:21.347Z,8.30
2018-09-13T07:29:51.224Z,8.33
2018-09-13T07:32:20.617Z,10.13
2018-09-13T07:34:49.800Z,8.40
2018-09-13T07:37:19.245Z,8.05
2018-09-13T07:39:48.469Z,9.23
2018-09-13T07:42:17.648Z,9.23
2018-09-13T07:44:46.872Z,8.05
2018-09-13T07:47:16.065Z,7.55
2018-09-13T07:49:45.330Z,9.68
2018-09-13T07:52:14.728Z,10.63
2018-09-13T07:54:43.916Z,7.03
2018-09-13T07:57:13.119Z,8.03
2018-09-13T07:59:42.288Z,7.30
2018-09-13T08:02:11.532Z,6.50
2018-09-13T08:04:40.771Z,6.17
2018-09-13T08:07:09.955Z,6.53
2018-09-13T08:09:39.176Z,8.00
2018-09-13T08:12:08.504Z,6.95
2018-09-13T08:14:37.737Z,6.85
2018-09-13T08:17:06.941Z,7.00
2018-09-13T08:19:36.132Z,6.37
2018-09-13T08:22:05.369Z,9.70
2018-09-13T08:24:34.685Z,8.43
2018-09-13T08:27:03.891Z,5.85
2018-09-13T08:29:33.414Z,6.35
2018-09-13T08:32:02.585Z,7.15
2018-09-13T08:34:31.776Z,6.22
2018-09-13T08:37:03.063Z,5.92
2018-09-13T08:39:32.445Z,7.53
2018-09-13T08:42:01.777Z,5.83
2018-09-13T08:44:30.965Z,6.65
2018-09-13T08:47:00.666Z,5.03
2018-09-13T08:49:29.849Z,7.15
2018-09-13T08:51:59.067Z,7.20
2018-09-13T08:54:28.516Z,6.05
2018-09-13T08:56:57.773Z,6.90
2018-09-13T08:59:27.453Z,5.87
2018-09-13T09:01:56.680Z,7.72
2018-09-13T09:04:25.843Z,7.35
2018-09-13T09:06:55.601Z,6.67
2018-09-13T09:09:25.112Z,7.72
2018-09-13T09:11:54.297Z,6.03
2018-09-13T09:14:23.795Z,7.20
2018-09-13T09:16:53.196Z,6.47
2018-09-13T09:19:22.433Z,5.53
2018-09-13T09:21:51.653Z,6.17
2018-09-13T09:24:20.816Z,9.00
2018-09-13T09:26:49.967Z,6.90
2018-09-13T09:29:19.382Z,8.08
2018-09-13T09:31:48.807Z,7.65
2018-09-13T09:34:18.092Z,7.03
2018-09-13T09:36:47.241Z,9.88
2018-09-13T09:39:16.414Z,6.10
2018-09-13T09:41:45.589Z,7.78
2018-09-13T09:44:14.877Z,7.87
2018-09-13T09:46:44.192Z,7.67
2018-09-13T09:49:13.433Z,7.50
2018-09-13T09:51:42.603Z,9.38
2018-09-13T09:54:11.755Z,7.08
2018-09-13T09:56:40.969Z,9.88
2018-09-13T09:59:10.147Z,5.85
2018-09-13T10:01:44.814Z,7.53
2018-09-13T10:04:14.036Z,7.62
2018-09-13T10:06:43.405Z,5.50
2018-09-13T10:09:12.680Z,6.72
2018-09-13T10:11:41.848Z,8.18
2018-09-13T10:14:11.060Z,8.18
2018-09-13T10:16:45.412Z,10.00
2018-09-13T10:19:20.004Z,8.48
2018-09-13T10:21:54.836Z,7.40
2018-09-13T10:24:30.184Z,7.92
2018-09-13T10:27:04.836Z,9.63
2018-09-13T10:29:39.583Z,7.33
2018-09-13T10:32:14.350Z,9.05
2018-09-13T10:34:48.910Z,10.05
2018-09-13T10:37:23.366Z,5.22
2018-09-13T10:40:58.680Z,10.18
2018-09-13T10:43:33.178Z,7.58
2018-09-13T10:46:07.676Z,7.50
2018-09-13T10:48:36.932Z,6.65
2018-09-13T10:51:16.548Z,8.23
2018-09-13T10:53:50.313Z,6.20
2018-09-13T10:56:19.527Z,6.83
2018-09-13T10:58:49.078Z,5.28
2018-09-13T11:01:18.288Z,6.20
2018-09-13T11:03:47.448Z,5.65
2018-09-13T11:06:16.671Z,8.28
2018-09-13T11:08:45.971Z,7.78
2018-09-13T11:11:15.283Z,7.80
2018-09-13T11:13:53.252Z,8.48
2018-09-13T11:16:22.635Z,7.50
2018-09-13T11:18:51.797Z,5.70
2018-09-13T11:21:20.964Z,6.15
2018-09-13T11:23:50.392Z,5.67
2018-09-13T11:26:19.624Z,6.35
2018-09-13T11:28:49.054Z,6.55
2018-09-13T11:31:18.314Z,6.08
2018-09-13T11:33:47.756Z,5.08
2018-09-13T11:36:17.854Z,5.03
2018-09-13T11:38:47.124Z,5.30
2018-09-13T11:41:16.322Z,3.50
2018-09-13T11:43:45.620Z,6.12
2018-09-13T11:46:15.162Z,5.67
2018-09-13T11:48:44.328Z,6.85
2018-09-13T11:51:13.738Z,4.45
2018-09-13T11:53:43.308Z,5.15
2018-09-13T11:56:12.473Z,6.92
2018-09-13T11:58:42.045Z,8.35
2018-09-13T12:01:11.504Z,3.92
2018-09-13T12:03:40.900Z,5.10
2018-09-13T12:06:10.189Z,7.05
2018-09-13T12:08:39.435Z,4.37
2018-09-13T12:11:08.685Z,6.30
2018-09-13T12:13:37.988Z,5.60
2018-09-13T12:16:07.602Z,7.03
2018-09-13T12:18:36.855Z,6.00
2018-09-13T12:21:06.065Z,5.62
2018-09-13T12:23:35.241Z,7.60
2018-09-13T12:26:04.572Z,5.05
2018-09-13T12:28:33.969Z,6.55
2018-09-13T12:31:03.138Z,6.30
2018-09-13T12:33:32.802Z,6.22
2018-09-13T12:36:02.438Z,5.78
2018-09-13T12:38:31.750Z,4.83
2018-09-13T12:41:01.860Z,4.30
2018-09-13T12:43:31.046Z,4.85
2018-09-13T12:46:00.262Z,4.78
2018-09-13T12:48:29.766Z,5.33
2018-09-13T12:50:59.007Z,5.08
2018-09-13T12:53:28.763Z,4.72
2018-09-13T12:55:58.010Z,5.58
2018-09-13T12:58:27.597Z,4.72
2018-09-13T13:00:56.821Z,2.80
2018-09-13T13:03:26.140Z,5.92
2018-09-13T13:05:56.711Z,4.50
2018-09-13T13:08:26.048Z,8.13
2018-09-13T13:10:55.329Z,5.58
2018-09-13T13:13:26.600Z,6.53
2018-09-13T13:15:55.801Z,8.83
2018-09-13T13:18:25.087Z,6.30
2018-09-13T13:20:54.269Z,7.95
2018-09-13T13:23:23.457Z,5.65
2018-09-13T13:25:53.219Z,6.00
2018-09-13T13:28:22.496Z,4.03
2018-09-13T13:30:51.996Z,5.03
2018-09-13T13:33:21.152Z,6.60
2018-09-13T13:35:50.327Z,5.58
2018-09-13T13:38:19.771Z,3.62
2018-09-13T13:40:49.332Z,4.75
2018-09-13T13:43:18.529Z,5.03
2018-09-13T13:45:47.744Z,5.10
2018-09-13T13:48:17.263Z,8.15
2018-09-13T13:50:46.440Z,7.12
2018-09-13T13:53:15.609Z,4.50
2018-09-13T13:55:44.833Z,5.85
2018-09-13T13:58:14.036Z,6.25
2018-09-13T14:00:43.320Z,3.98
2018-09-13T14:03:12.547Z,4.83
2018-09-13T14:05:41.914Z,4.20
2018-09-13T14:08:11.151Z,4.33
2018-09-13T14:10:40.344Z,4.28
2018-09-13T14:13:09.612Z,7.42
2018-09-13T14:15:38.795Z,4.80
2018-09-13T14:18:07.976Z,5.25
2018-09-13T14:20:37.334Z,7.10
2018-09-13T14:23:06.621Z,6.20
2018-09-13T14:25:35.849Z,5.50
2018-09-13T14:28:05.523Z,5.10
2018-09-13T14:30:34.834Z,5.78
2018-09-13T14:33:04.119Z,5.83
2018-09-13T14:35:33.448Z,3.25
2018-09-13T14:38:03.085Z,9.53
2018-09-13T14:40:32.359Z,6.37
2018-09-13T14:43:01.675Z,5.85
2018-09-13T14:45:30.935Z,5.58
2018-09-13T14:48:00.167Z,4.97
2018-09-13T14:50:29.390Z,5.33
2018-09-13T14:52:58.552Z,3.72
2018-09-13T14:55:27.882Z,8.15
2018-09-13T14:57:57.133Z,6.12
2018-09-13T15:00:26.346Z,5.80
2018-09-13T15:02:55.741Z,6.35
2018-09-13T15:05:25.011Z,7.45
2018-09-13T15:07:54.196Z,4.55
2018-09-13T15:10:23.725Z,7.05
2018-09-13T15:12:52.957Z,5.70
2018-09-13T15:15:22.324Z,4.72
2018-09-13T15:17:51.488Z,3.37
2018-09-13T15:20:20.671Z,5.70
2018-09-13T15:22:49.908Z,9.18
2018-09-13T15:25:19.120Z,8.78
2018-09-13T15:27:48.373Z,5.45
2018-09-13T15:30:17.553Z,5.28
2018-09-13T15:32:46.801Z,5.33
2018-09-13T15:35:16.006Z,6.08
2018-09-13T15:37:45.277Z,5.65
2018-09-13T15:40:14.484Z,7.17
2018-09-13T15:42:43.693Z,6.25
2018-09-13T15:45:12.888Z,7.70
2018-09-13T15:47:42.066Z,5.45
2018-09-13T15:50:11.334Z,4.50
2018-09-13T15:52:40.601Z,4.45
2018-09-13T15:55:10.069Z,6.10
2018-09-13T15:57:39.221Z,6.78
2018-09-13T16:00:08.717Z,6.55
2018-09-13T16:02:38.349Z,7.78
2018-09-13T16:05:07.755Z,5.83
2018-09-13T16:07:36.943Z,5.42
2018-09-13T16:10:06.313Z,7.67
2018-09-13T16:12:35.585Z,6.33
2018-09-13T16:15:04.953Z,6.85
2018-09-13T16:17:34.650Z,7.25
2018-09-13T16:20:04.427Z,4.15
2018-09-13T16:25:09.323Z,8.68
2018-09-13T16:27:38.513Z,6.80
2018-09-13T16:30:08.169Z,7.75
2018-09-13T16:32:37.746Z,6.28
2018-09-13T16:35:07.916Z,4.60
2018-09-13T16:37:42.875Z,5.60
2018-09-13T16:40:17.890Z,6.28
2018-09-13T16:42:53.719Z,6.83
2018-09-13T16:45:27.157Z,10.15
2018-09-13T16:48:02.680Z,11.65
2018-09-13T16:50:31.871Z,7.35
2018-09-13T16:53:01.572Z,5.78
2018-09-13T16:55:30.976Z,5.95
2018-09-13T16:58:00.258Z,6.78
2018-09-13T17:00:29.476Z,6.83
2018-09-13T17:02:58.757Z,7.20
2018-09-13T17:05:27.973Z,6.92
2018-09-13T17:07:56.583Z,10.17
2018-09-13T17:10:25.201Z,5.20
2018-09-13T17:12:53.792Z,7.10
2018-09-13T17:15:22.444Z,5.60
2018-09-13T17:17:51.025Z,6.13
2018-09-13T17:20:19.639Z,7.37
2018-09-13T17:22:48.502Z,9.67
2018-09-13T17:25:17.100Z,13.17
2018-09-13T17:27:45.740Z,8.37
2018-09-13T17:30:14.335Z,9.50
2018-09-13T17:32:42.918Z,10.63
2018-09-13T17:35:11.490Z,9.60
2018-09-13T17:37:40.113Z,7.27
2018-09-13T17:40:08.776Z,10.40
2018-09-13T17:42:37.374Z,9.97
2018-09-13T17:45:06.249Z,8.40
2018-09-13T17:47:35.032Z,9.07
2018-09-13T17:50:03.669Z,7.47
2018-09-13T17:52:32.274Z,6.97
2018-09-13T17:55:00.925Z,6.00
2018-09-13T17:57:29.698Z,13.80
2018-09-13T17:59:58.313Z,6.90
2018-09-13T18:02:26.924Z,5.43
2018-09-13T18:04:55.546Z,8.90
2018-09-13T18:07:24.145Z,10.17
2018-09-13T18:09:52.788Z,9.97
2018-09-13T18:12:21.457Z,9.80
2018-09-13T18:14:50.098Z,4.37
2018-09-13T18:17:18.696Z,6.77
2018-09-13T18:19:47.284Z,9.00
2018-09-13T18:22:16.169Z,8.17
2018-09-13T18:24:44.788Z,5.43
2018-09-13T18:27:13.453Z,6.43
2018-09-13T18:29:42.212Z,10.83
2018-09-13T18:32:10.927Z,5.80
2018-09-13T18:34:39.670Z,6.67
2018-09-13T18:37:08.668Z,10.20
2018-09-13T18:39:37.477Z,5.53
2018-09-13T18:42:06.827Z,8.43
2018-09-13T18:44:35.539Z,8.40
2018-09-13T18:47:04.696Z,5.33
2018-09-13T18:49:33.532Z,4.57
2018-09-13T18:52:02.562Z,5.07
2018-09-13T18:54:31.586Z,7.33
2018-09-13T18:57:00.467Z,6.70
2018-09-13T18:59:29.169Z,6.40
2018-09-13T19:01:58.039Z,6.33
2018-09-13T19:04:26.783Z,5.03
2018-09-13T19:06:55.427Z,9.73
2018-09-13T19:09:24.036Z,5.27
2018-09-13T19:11:52.786Z,8.30
2018-09-13T19:14:21.568Z,6.50
2018-09-13T19:16:50.178Z,9.70
2018-09-13T19:19:18.783Z,6.20
2018-09-13T19:21:47.394Z,5.90
2018-09-13T19:24:16.048Z,5.13
2018-09-13T19:26:44.666Z,7.33
2018-09-13T19:29:13.294Z,5.67
2018-09-13T19:31:41.895Z,4.47
2018-09-13T19:34:10.504Z,5.40
2018-09-13T19:36:39.165Z,4.10
2018-09-13T19:39:10.184Z,6.33
2018-09-13T19:41:39.138Z,6.13
2018-09-13T19:44:07.840Z,8.27
2018-09-13T19:46:36.601Z,7.73
2018-09-13T19:49:05.268Z,7.93
2018-09-13T19:51:33.932Z,9.17
2018-09-13T19:54:02.816Z,7.10
2018-09-13T19:56:31.652Z,4.33
2018-09-13T19:59:00.265Z,9.60
2018-09-13T20:01:29.809Z,9.40
2018-09-13T20:03:58.405Z,7.57
2018-09-13T20:06:27.047Z,4.77
2018-09-13T20:08:55.696Z,5.87
2018-09-13T20:11:24.309Z,4.90
2018-09-13T20:13:53.003Z,9.17
2018-09-13T20:16:21.625Z,8.50
2018-09-13T20:18:50.244Z,8.37
2018-09-13T20:21:18.846Z,6.83
2018-09-13T20:23:49.171Z,7.50
2018-09-13T20:26:18.424Z,7.13
2018-09-13T20:28:47.076Z,7.43
2018-09-13T20:31:15.907Z,6.97
2018-09-13T20:33:44.496Z,6.40
2018-09-13T20:36:13.131Z,7.17
2018-09-13T20:38:41.983Z,9.57
2018-09-13T20:41:10.605Z,8.27
2018-09-13T20:43:39.364Z,5.03
2018-09-13T20:46:07.976Z,6.80
2018-09-13T20:48:36.651Z,7.07
2018-09-13T20:51:05.580Z,9.80
2018-09-13T20:53:34.624Z,7.73
2018-09-13T20:56:03.212Z,8.10
2018-09-13T20:58:31.836Z,7.93
2018-09-13T21:01:00.489Z,9.43
2018-09-13T21:03:29.116Z,10.50
2018-09-13T21:05:57.740Z,9.47
2018-09-13T21:08:26.418Z,6.63
2018-09-13T21:10:55.245Z,8.40
2018-09-13T21:13:23.844Z,7.40
2018-09-13T21:15:52.460Z,6.60
2018-09-13T21:18:21.077Z,10.10
2018-09-13T21:20:49.660Z,5.93
2018-09-13T21:23:18.225Z,8.90
2018-09-13T21:25:46.827Z,8.60
2018-09-13T21:28:15.500Z,8.20
2018-09-13T21:30:44.076Z,7.43
2018-09-13T21:33:12.749Z,6.97
2018-09-13T21:35:41.374Z,7.67
2018-09-13T21:38:09.992Z,8.10
2018-09-13T21:40:38.645Z,8.83
2018-09-13T21:43:07.285Z,10.07
2018-09-13T21:45:35.895Z,5.70
2018-09-13T21:48:04.528Z,7.43
2018-09-13T21:50:33.175Z,7.03
2018-09-13T21:53:01.825Z,11.33
2018-09-13T21:55:29.447Z,10.63
2018-09-13T21:57:58.048Z,8.57
2018-09-13T22:00:26.643Z,7.93
2018-09-13T22:02:55.822Z,7.90
2018-09-13T22:05:24.525Z,9.47
2018-09-13T22:07:53.340Z,6.87
2018-09-13T22:10:22.073Z,8.10
2018-09-13T22:12:50.701Z,8.27
2018-09-13T22:15:19.346Z,5.83
2018-09-13T22:17:48.087Z,6.93
2018-09-13T22:20:16.909Z,10.23
2018-09-13T22:22:45.550Z,8.40
2018-09-13T22:25:14.228Z,11.00
2018-09-13T22:27:42.854Z,8.07
2018-09-13T22:30:11.582Z,10.00
2018-09-13T22:32:40.221Z,5.67
2018-09-13T22:35:09.086Z,8.40
2018-09-13T22:37:37.749Z,6.40
2018-09-13T22:40:08.315Z,7.07
2018-09-13T22:42:36.960Z,7.30
2018-09-13T22:45:05.886Z,7.37
2018-09-13T22:47:34.599Z,7.50
2018-09-13T22:50:03.287Z,6.57
2018-09-13T22:52:32.042Z,8.43
2018-09-13T22:55:00.726Z,7.23
2018-09-13T22:57:29.525Z,7.60
2018-09-13T22:59:58.167Z,7.83
2018-09-13T23:02:26.790Z,7.13
2018-09-13T23:04:55.530Z,10.73
2018-09-13T23:07:24.215Z,7.33
2018-09-13T23:09:52.930Z,8.57
2018-09-13T23:12:22.399Z,9.97
2018-09-13T23:14:51.356Z,9.87
2018-09-13T23:17:20.029Z,8.87
2018-09-13T23:19:49.692Z,7.70
2018-09-13T23:22:18.332Z,8.73
2018-09-13T23:24:47.522Z,10.00
2018-09-13T23:27:16.698Z,9.63
2018-09-13T23:29:45.321Z,8.20
2018-09-13T23:32:14.008Z,9.37
2018-09-13T23:34:42.974Z,9.43
2018-09-13T23:37:11.615Z,7.40
2018-09-13T23:39:40.492Z,8.77
2018-09-13T23:42:09.153Z,10.63
2018-09-13T23:44:37.877Z,9.43
2018-09-13T23:47:06.529Z,8.70
2018-09-13T23:49:35.839Z,11.27
2018-09-13T23:52:04.805Z,9.77
2018-09-13T23:54:33.436Z,6.80
2018-09-13T23:57:02.555Z,8.30
2018-09-13T23:59:31.362Z,8.57
